createdAt,value
2023-03-29T00:01:35.491Z,101957.44
2023-03-29T00:04:06.273Z,101949.28
2023-03-29T00:06:33.722Z,101940.13
2023-03-29T00:09:00.308Z,101930.84
2023-03-29T00:11:27.432Z,101931.44
2023-03-29T00:13:54.078Z,101931.16
2023-03-29T00:16:20.787Z,101927.56
2023-03-29T00:18:47.279Z,101921.16
2023-03-29T00:21:13.710Z,101915.00
2023-03-29T00:23:40.113Z,101923.16
2023-03-29T00:26:08.235Z,101912.28
2023-03-29T00:28:35.188Z,101909.72
2023-03-29T00:31:06.267Z,101910.72
2023-03-29T00:33:33.003Z,101913.44
2023-03-29T00:35:59.558Z,101912.69
2023-03-29T00:38:25.944Z,101915.56
2023-03-29T00:40:52.353Z,101910.41
2023-03-29T00:43:18.811Z,101900.69
2023-03-29T00:45:45.213Z,101896.44
2023-03-29T00:48:20.848Z,101894.72
2023-03-29T00:50:50.038Z,101899.44
2023-03-29T00:53:19.363Z,101889.00
2023-03-29T00:55:46.038Z,101879.28
2023-03-29T00:58:14.971Z,101879.44
2023-03-29T01:00:45.927Z,101878.75
2023-03-29T01:03:14.456Z,101868.00
2023-03-29T01:05:44.105Z,101865.56
2023-03-29T01:08:18.265Z,101859.44
2023-03-29T01:10:49.964Z,101856.00
2023-03-29T01:13:19.993Z,101859.72
2023-03-29T01:15:46.923Z,101858.88
2023-03-29T01:18:14.023Z,101851.75
2023-03-29T01:21:06.572Z,101855.47
2023-03-29T01:23:38.215Z,101851.03
2023-03-29T01:26:07.362Z,101844.91
2023-03-29T01:28:36.248Z,101844.75
2023-03-29T01:31:07.416Z,101844.03
2023-03-29T01:33:37.424Z,101835.06
2023-03-29T01:36:14.187Z,101844.75
2023-03-29T01:38:43.934Z,101833.19
2023-03-29T01:41:10.801Z,101833.03
2023-03-29T01:43:44.154Z,101833.03
2023-03-29T01:46:13.483Z,101826.91
2023-03-29T01:48:42.720Z,101823.34
2023-03-29T01:51:11.458Z,101817.91
2023-03-29T01:53:37.860Z,101814.31
2023-03-29T01:56:11.797Z,101810.63
2023-03-29T01:58:41.658Z,101807.19
2023-03-29T02:01:10.458Z,101799.91
2023-03-29T02:03:42.396Z,101796.50
2023-03-29T02:06:11.225Z,101789.19
2023-03-29T02:08:39.156Z,101781.06
2023-03-29T02:11:05.710Z,101782.06
2023-03-29T02:13:32.269Z,101776.78
2023-03-29T02:16:02.246Z,101772.34
2023-03-29T02:18:30.039Z,101771.50
2023-03-29T02:20:57.394Z,101770.66
2023-03-29T02:23:29.332Z,101764.50
2023-03-29T02:25:57.053Z,101764.38
2023-03-29T02:28:24.742Z,101750.94
2023-03-29T02:31:09.864Z,101753.50
2023-03-29T02:33:57.285Z,101751.66
2023-03-29T02:36:27.486Z,101744.38
2023-03-29T02:38:54.206Z,101746.91
2023-03-29T02:41:22.015Z,101741.50
2023-03-29T02:43:49.054Z,101742.34
2023-03-29T02:46:16.414Z,101736.78
2023-03-29T02:48:46.341Z,101737.81
2023-03-29T02:51:20.022Z,101742.22
2023-03-29T02:53:57.209Z,101728.78
2023-03-29T02:56:23.973Z,101720.81
2023-03-29T02:58:50.396Z,101731.50
2023-03-29T03:01:18.048Z,101725.22
2023-03-29T03:03:45.310Z,101721.66
2023-03-29T03:06:12.344Z,101713.50
2023-03-29T03:08:38.905Z,101712.66
2023-03-29T03:11:05.527Z,101712.81
2023-03-29T03:13:31.987Z,101713.66
2023-03-29T03:15:58.457Z,101702.94
2023-03-29T03:18:24.981Z,101706.53
2023-03-29T03:20:54.813Z,101702.09
2023-03-29T03:23:21.242Z,101698.53
2023-03-29T03:25:49.134Z,101696.66
2023-03-29T03:28:15.498Z,101696.81
2023-03-29T03:30:42.176Z,101694.97
2023-03-29T03:33:09.210Z,101693.94
2023-03-29T03:35:35.682Z,101690.38
2023-03-29T03:38:02.101Z,101682.25
2023-03-29T03:40:28.539Z,101682.25
2023-03-29T03:42:54.909Z,101687.84
2023-03-29T03:45:21.699Z,101677.84
2023-03-29T03:47:48.178Z,101683.41
2023-03-29T03:50:14.652Z,101680.84
2023-03-29T03:52:41.055Z,101673.53
2023-03-29T03:55:08.303Z,101678.28
2023-03-29T03:57:37.492Z,101671.84
2023-03-29T04:00:08.862Z,101677.44
2023-03-29T04:02:35.960Z,101671.16
2023-03-29T04:05:03.465Z,101672.00
2023-03-29T04:07:30.233Z,101669.41
2023-03-29T04:09:56.661Z,101670.28
2023-03-29T04:12:23.197Z,101661.28
2023-03-29T04:14:49.894Z,101662.28
2023-03-29T04:17:16.366Z,101657.72
2023-03-29T04:19:42.815Z,101656.00
2023-03-29T04:22:09.485Z,101664.31
2023-03-29T04:24:36.115Z,101658.88
2023-03-29T04:27:02.575Z,101663.47
2023-03-29T04:29:28.984Z,101658.16
2023-03-29T04:31:56.498Z,101658.03
2023-03-29T04:34:22.967Z,101663.47
2023-03-29T04:36:52.118Z,101657.31
2023-03-29T04:39:18.553Z,101653.59
2023-03-29T04:41:45.086Z,101647.19
2023-03-29T04:44:12.295Z,101650.75
2023-03-29T04:46:40.319Z,101645.31
2023-03-29T04:49:07.008Z,101653.31
2023-03-29T04:51:33.370Z,101647.72
2023-03-29T04:53:59.824Z,101653.13
2023-03-29T04:56:27.130Z,101653.13
2023-03-29T04:58:53.610Z,101645.84
2023-03-29T05:01:20.170Z,101642.00
2023-03-29T05:03:46.638Z,101640.00
2023-03-29T05:06:13.565Z,101624.41
2023-03-29T05:08:40.316Z,101636.69
2023-03-29T05:11:07.438Z,101631.09
2023-03-29T05:13:34.278Z,101634.53
2023-03-29T05:16:01.001Z,101633.53
2023-03-29T05:18:27.882Z,101637.81
2023-03-29T05:20:54.344Z,101631.19
2023-03-29T05:23:20.783Z,101621.91
2023-03-29T05:25:48.822Z,101621.91
2023-03-29T05:28:15.379Z,101625.31
2023-03-29T05:30:42.500Z,101612.63
2023-03-29T05:33:09.122Z,101610.78
2023-03-29T05:35:36.072Z,101606.19
2023-03-29T05:38:04.486Z,101611.47
2023-03-29T05:40:31.544Z,101607.91
2023-03-29T05:42:59.498Z,101604.16
2023-03-29T05:45:28.585Z,101603.03
2023-03-29T05:47:55.273Z,101598.44
2023-03-29T05:50:21.750Z,101601.16
2023-03-29T05:52:48.146Z,101595.56
2023-03-29T05:55:14.883Z,101584.88
2023-03-29T05:57:41.479Z,101587.28
2023-03-29T06:00:17.786Z,101594.44
2023-03-29T06:02:44.313Z,101596.00
2023-03-29T06:05:10.870Z,101595.66
2023-03-29T06:07:38.361Z,101596.38
2023-03-29T06:10:05.669Z,101598.81
2023-03-29T06:12:32.581Z,101600.34
2023-03-29T06:15:04.706Z,101593.03
2023-03-29T06:17:31.602Z,101586.63
2023-03-29T06:19:58.052Z,101583.59
2023-03-29T06:22:24.473Z,101588.72
2023-03-29T06:24:51.171Z,101582.28
2023-03-29T06:27:17.674Z,101584.00
2023-03-29T06:29:44.028Z,101583.69
2023-03-29T06:32:11.102Z,101585.28
2023-03-29T06:34:38.560Z,101585.97
2023-03-29T06:37:05.950Z,101585.66
2023-03-29T06:39:32.971Z,101581.94
2023-03-29T06:42:03.479Z,101580.94
2023-03-29T06:44:33.893Z,101578.22
2023-03-29T06:47:00.382Z,101584.59
2023-03-29T06:49:27.041Z,101580.94
2023-03-29T06:51:53.920Z,101583.19
2023-03-29T06:54:21.100Z,101578.59
2023-03-29T06:56:47.550Z,101572.00
2023-03-29T06:59:13.966Z,101571.00
2023-03-29T07:01:40.435Z,101577.50
2023-03-29T07:04:08.897Z,101574.25
2023-03-29T07:06:38.253Z,101568.03
2023-03-29T07:09:07.878Z,101566.63
2023-03-29T07:11:35.813Z,101567.47
2023-03-29T07:14:03.234Z,101567.47
2023-03-29T07:16:29.694Z,101556.84
2023-03-29T07:18:56.658Z,101559.66
2023-03-29T07:21:23.082Z,101558.63
2023-03-29T07:23:49.537Z,101564.97
2023-03-29T07:26:28.742Z,101571.50
2023-03-29T07:28:56.302Z,101561.16
2023-03-29T07:31:22.716Z,101568.00
2023-03-29T07:33:52.482Z,101560.38
2023-03-29T07:36:19.676Z,101574.34
2023-03-29T07:38:46.107Z,101569.59
2023-03-29T07:41:12.489Z,101559.41
2023-03-29T07:43:39.131Z,101564.38
2023-03-29T07:46:06.163Z,101561.16
2023-03-29T07:48:33.842Z,101555.72
2023-03-29T07:51:00.871Z,101554.25
2023-03-29T07:53:29.589Z,101558.53
2023-03-29T07:55:56.223Z,101559.25
2023-03-29T07:58:22.708Z,101551.59
2023-03-29T08:00:49.275Z,101550.44
2023-03-29T08:03:16.226Z,101547.41
2023-03-29T08:05:43.285Z,101547.03
2023-03-29T08:08:10.110Z,101547.03
2023-03-29T08:10:37.715Z,101540.06
2023-03-29T08:13:07.284Z,101544.50
2023-03-29T08:15:34.230Z,101546.53
2023-03-29T08:18:00.769Z,101542.63
2023-03-29T08:20:27.488Z,101549.44
2023-03-29T08:22:54.418Z,101542.00
2023-03-29T08:25:21.758Z,101549.97
2023-03-29T08:27:48.406Z,101552.53
2023-03-29T08:30:15.747Z,101555.97
2023-03-29T08:32:42.323Z,101558.50
2023-03-29T08:35:09.814Z,101557.50
2023-03-29T08:37:37.255Z,101553.28
2023-03-29T08:40:04.143Z,101552.09
2023-03-29T08:42:41.787Z,101550.38
2023-03-29T08:45:17.391Z,101546.28
2023-03-29T08:47:56.178Z,101540.31
2023-03-29T08:50:27.305Z,101545.06
2023-03-29T08:53:00.563Z,101543.19
2023-03-29T08:55:31.770Z,101534.38
2023-03-29T08:57:59.845Z,101556.13
2023-03-29T09:00:38.835Z,101548.81
2023-03-29T09:03:18.150Z,101540.78
2023-03-29T09:05:47.446Z,101534.81
2023-03-29T09:08:17.020Z,101541.81
2023-03-29T09:10:48.014Z,101539.09
2023-03-29T09:13:19.921Z,101529.91
2023-03-29T09:15:46.670Z,101527.06
2023-03-29T09:18:31.670Z,101528.56
2023-03-29T09:21:06.850Z,101526.56
2023-03-29T09:23:44.463Z,101520.94
2023-03-29T09:26:18.182Z,101524.38
2023-03-29T09:28:55.731Z,101514.88
2023-03-29T09:31:26.205Z,101512.13
2023-03-29T09:33:57.309Z,101510.94
2023-03-29T09:36:25.013Z,101504.16
2023-03-29T09:38:54.542Z,101501.28
2023-03-29T09:41:31.488Z,101503.84
2023-03-29T09:44:00.140Z,101489.91
2023-03-29T09:46:30.318Z,101489.91
2023-03-29T09:48:57.272Z,101489.19
2023-03-29T09:51:28.350Z,101478.63
2023-03-29T09:53:56.263Z,101488.53
2023-03-29T09:56:23.035Z,101488.66
2023-03-29T09:58:49.434Z,101484.06
2023-03-29T10:01:17.405Z,101481.53
2023-03-29T10:03:48.587Z,101475.25
2023-03-29T10:06:16.471Z,101472.69
2023-03-29T10:08:55.028Z,101460.94
2023-03-29T10:11:23.461Z,101457.38
2023-03-29T10:13:54.833Z,101456.69
2023-03-29T10:16:25.846Z,101465.72
2023-03-29T10:18:54.608Z,101460.44
2023-03-29T10:21:22.016Z,101455.00
2023-03-29T10:23:49.031Z,101453.97
2023-03-29T10:26:28.461Z,101444.13
2023-03-29T10:28:57.178Z,101451.25
2023-03-29T10:31:24.845Z,101439.34
2023-03-29T10:33:52.698Z,101453.78
2023-03-29T10:36:19.593Z,101435.59
2023-03-29T10:38:46.375Z,101434.59
2023-03-29T10:41:13.703Z,101433.56
2023-03-29T10:43:45.436Z,101445.13
2023-03-29T10:46:30.500Z,101441.41
2023-03-29T10:48:58.665Z,101430.34
2023-03-29T10:51:27.731Z,101421.16
2023-03-29T10:53:54.150Z,101424.72
2023-03-29T10:56:38.926Z,101431.91
2023-03-29T10:59:14.549Z,101419.13
2023-03-29T11:01:56.508Z,101402.63
2023-03-29T11:04:35.534Z,101423.38
2023-03-29T11:07:07.904Z,101409.78
2023-03-29T11:09:37.430Z,101407.91
2023-03-29T11:12:16.461Z,101413.34
2023-03-29T11:15:01.304Z,101406.06
2023-03-29T11:17:27.760Z,101412.34
2023-03-29T11:19:54.178Z,101406.72
2023-03-29T11:22:29.937Z,101408.59
2023-03-29T11:25:10.060Z,101398.56
2023-03-29T11:27:46.117Z,101402.31
2023-03-29T11:30:12.526Z,101394.28
2023-03-29T11:32:54.531Z,101392.44
2023-03-29T11:35:39.780Z,101382.56
2023-03-29T11:38:24.991Z,101391.75
2023-03-29T11:40:54.187Z,101380.34
2023-03-29T11:43:27.847Z,101377.63
2023-03-29T11:46:00.953Z,101366.91
2023-03-29T11:48:34.504Z,101366.72
2023-03-29T11:51:18.766Z,101365.03
2023-03-29T11:54:07.472Z,101366.06
2023-03-29T11:56:40.822Z,101360.63
2023-03-29T11:59:13.164Z,101357.06
2023-03-29T12:01:42.727Z,101360.63
2023-03-29T12:04:23.008Z,101352.47
2023-03-29T12:06:49.501Z,101351.63
2023-03-29T12:09:16.827Z,101346.31
2023-03-29T12:11:50.930Z,101342.75
2023-03-29T12:14:20.882Z,101338.16
2023-03-29T12:16:51.899Z,101354.47
2023-03-29T12:19:33.754Z,101338.16
2023-03-29T12:22:01.027Z,101340.88
2023-03-29T12:24:32.505Z,101341.72
2023-03-29T12:27:16.409Z,101335.44
2023-03-29T12:29:51.977Z,101335.44
2023-03-29T12:32:21.492Z,101331.69
2023-03-29T12:34:50.661Z,101328.97
2023-03-29T12:37:24.683Z,101320.78
2023-03-29T12:39:51.779Z,101328.81
2023-03-29T12:42:20.298Z,101321.50
2023-03-29T12:44:49.823Z,101318.78
2023-03-29T12:47:21.587Z,101326.75
2023-03-29T12:49:51.273Z,101324.22
2023-03-29T12:52:43.941Z,101325.25
2023-03-29T12:55:20.997Z,101323.38
2023-03-29T12:58:02.604Z,101317.22
2023-03-29T13:00:58.469Z,101322.53
2023-03-29T13:03:29.431Z,101322.53
2023-03-29T13:06:00.751Z,101316.38
2023-03-29T13:08:32.764Z,101315.53
2023-03-29T13:10:59.368Z,101312.81
2023-03-29T13:13:31.183Z,101310.94
2023-03-29T13:16:08.662Z,101309.25
2023-03-29T13:18:41.047Z,101303.63
2023-03-29T13:21:14.031Z,101294.47
2023-03-29T13:23:46.560Z,101293.78
2023-03-29T13:26:24.869Z,101285.59
2023-03-29T13:29:07.245Z,101281.00
2023-03-29T13:31:44.319Z,101282.03
2023-03-29T13:34:26.646Z,101286.63
2023-03-29T13:37:05.205Z,101283.91
2023-03-29T13:39:34.459Z,101284.94
2023-03-29T13:42:07.176Z,101287.66
2023-03-29T13:44:44.408Z,101305.50
2023-03-29T13:47:26.431Z,101291.22
2023-03-29T13:49:54.114Z,101288.50
2023-03-29T13:52:26.565Z,101299.41
2023-03-29T13:54:57.418Z,101297.53
2023-03-29T13:57:30.129Z,101285.78
2023-03-29T13:59:57.117Z,101281.84
2023-03-29T14:02:29.622Z,101281.19
2023-03-29T14:04:56.278Z,101261.13
2023-03-29T14:07:26.405Z,101260.28
2023-03-29T14:09:53.456Z,101268.63
2023-03-29T14:12:20.601Z,101265.91
2023-03-29T14:14:58.280Z,101265.00
2023-03-29T14:17:25.718Z,101273.34
2023-03-29T14:19:57.650Z,101268.94
2023-03-29T14:22:24.368Z,101269.59
2023-03-29T14:24:54.855Z,101274.38
2023-03-29T14:27:22.013Z,101267.06
2023-03-29T14:29:50.101Z,101273.53
2023-03-29T14:32:20.495Z,101276.25
2023-03-29T14:34:50.884Z,101278.13
2023-03-29T14:37:21.846Z,101281.69
2023-03-29T14:39:49.319Z,101277.28
2023-03-29T14:42:20.138Z,101280.00
2023-03-29T14:44:47.470Z,101281.84
2023-03-29T14:47:17.008Z,101275.56
2023-03-29T14:49:44.279Z,101274.72
2023-03-29T14:52:11.678Z,101266.75
2023-03-29T14:54:39.505Z,101267.41
2023-03-29T14:57:08.931Z,101267.41
2023-03-29T14:59:37.070Z,101263.69
2023-03-29T15:02:04.177Z,101262.66
2023-03-29T15:04:34.479Z,101259.94
2023-03-29T15:07:01.008Z,101261.81
2023-03-29T15:09:29.969Z,101257.22
2023-03-29T15:11:57.599Z,101254.50
2023-03-29T15:14:25.149Z,101249.91
2023-03-29T15:16:53.414Z,101254.50
2023-03-29T15:19:21.353Z,101242.78
2023-03-29T15:21:49.234Z,101254.31
2023-03-29T15:24:22.121Z,101245.97
2023-03-29T15:26:58.152Z,101244.78
2023-03-29T15:29:33.210Z,101247.50
2023-03-29T15:31:59.784Z,101245.63
2023-03-29T15:34:27.729Z,101243.75
2023-03-29T15:36:57.868Z,101251.06
2023-03-29T15:39:24.654Z,101238.50
2023-03-29T15:41:52.806Z,101231.19
2023-03-29T15:44:48.433Z,101229.50
2023-03-29T15:47:15.010Z,101225.06
2023-03-29T15:49:41.919Z,101220.63
2023-03-29T15:52:08.634Z,101218.94
2023-03-29T15:54:37.068Z,101212.66
2023-03-29T15:57:06.427Z,101213.69
2023-03-29T15:59:32.998Z,101208.25
2023-03-29T16:01:59.506Z,101200.94
2023-03-29T16:04:26.150Z,101207.22
2023-03-29T16:06:53.383Z,101206.56
2023-03-29T16:09:20.705Z,101206.56
2023-03-29T16:11:47.978Z,101205.66
2023-03-29T16:14:25.361Z,101201.25
2023-03-29T16:16:52.361Z,101203.13
2023-03-29T16:19:19.561Z,101202.28
2023-03-29T16:21:46.042Z,101192.25
2023-03-29T16:24:16.430Z,101188.00
2023-03-29T16:26:43.038Z,101187.16
2023-03-29T16:29:09.467Z,101188.00
2023-03-29T16:31:36.429Z,101186.28
2023-03-29T16:34:03.528Z,101193.44
2023-03-29T16:36:31.006Z,101194.47
2023-03-29T16:38:58.971Z,101201.78
2023-03-29T16:41:25.829Z,101203.66
2023-03-29T16:43:52.636Z,101204.69
2023-03-29T16:46:19.110Z,101207.41
2023-03-29T16:48:45.549Z,101209.28
2023-03-29T16:51:11.996Z,101212.00
2023-03-29T16:53:38.729Z,101210.13
2023-03-29T16:56:05.549Z,101199.25
2023-03-29T16:58:32.206Z,101201.13
2023-03-29T17:00:58.666Z,101203.84
2023-03-29T17:03:25.650Z,101200.22
2023-03-29T17:05:53.056Z,101200.22
2023-03-29T17:08:20.289Z,101200.22
2023-03-29T17:10:46.933Z,101196.84
2023-03-29T17:13:13.334Z,101193.09
2023-03-29T17:15:40.142Z,101187.00
2023-03-29T17:18:07.160Z,101190.56
2023-03-29T17:20:33.667Z,101195.16
2023-03-29T17:23:00.129Z,101192.59
2023-03-29T17:25:26.592Z,101192.59
2023-03-29T17:27:54.094Z,101195.31
2023-03-29T17:30:20.787Z,101192.59
2023-03-29T17:32:47.298Z,101199.25
2023-03-29T17:35:14.596Z,101201.13
2023-03-29T17:37:41.943Z,101193.09
2023-03-29T17:40:13.945Z,101193.94
2023-03-29T17:42:45.750Z,101191.22
2023-03-29T17:45:12.307Z,101187.66
2023-03-29T17:47:39.065Z,101182.22
2023-03-29T17:50:06.176Z,101190.38
2023-03-29T17:52:32.609Z,101185.97
2023-03-29T17:54:59.022Z,101190.72
2023-03-29T17:57:25.572Z,101190.72
2023-03-29T17:59:52.132Z,101185.28
2023-03-29T18:02:21.097Z,101184.44
2023-03-29T18:04:47.664Z,101185.28
2023-03-29T18:07:14.207Z,101182.75
2023-03-29T18:09:40.660Z,101180.03
2023-03-29T18:12:07.556Z,101181.91
2023-03-29T18:14:34.168Z,101187.34
2023-03-29T18:17:00.924Z,101182.75
2023-03-29T18:19:27.509Z,101181.22
2023-03-29T18:21:54.287Z,101182.94
2023-03-29T18:24:20.671Z,101179.34
2023-03-29T18:26:47.172Z,101186.50
2023-03-29T18:29:13.655Z,101182.94
2023-03-29T18:31:40.339Z,101175.78
2023-03-29T18:34:06.810Z,101174.91
2023-03-29T18:36:33.258Z,101173.22
2023-03-29T18:39:05.572Z,101182.22
2023-03-29T18:41:32.976Z,101176.78
2023-03-29T18:44:00.218Z,101176.78
2023-03-29T18:46:30.365Z,101174.06
2023-03-29T18:48:57.440Z,101174.25
2023-03-29T18:51:25.750Z,101170.50
2023-03-29T18:53:52.833Z,101169.84
2023-03-29T18:56:19.318Z,101178.00
2023-03-29T18:58:46.362Z,101178.84
2023-03-29T19:01:13.988Z,101171.72
2023-03-29T19:03:40.923Z,101175.09
2023-03-29T19:06:07.992Z,101179.69
2023-03-29T19:08:36.631Z,101175.09
2023-03-29T19:11:04.373Z,101182.59
2023-03-29T19:13:30.872Z,101175.28
2023-03-29T19:15:57.411Z,101174.44
2023-03-29T19:18:23.899Z,101176.28
2023-03-29T19:20:51.254Z,101179.00
2023-03-29T19:23:18.468Z,101178.00
2023-03-29T19:25:55.218Z,101175.28
2023-03-29T19:28:21.974Z,101169.00
2023-03-29T19:30:48.598Z,101173.41
2023-03-29T19:33:15.816Z,101170.69
2023-03-29T19:35:42.591Z,101169.00
2023-03-29T19:38:09.165Z,101171.72
2023-03-29T19:40:36.498Z,101165.25
2023-03-29T19:43:03.053Z,101161.69
2023-03-29T19:45:29.918Z,101161.69
2023-03-29T19:47:57.129Z,101168.13
2023-03-29T19:50:24.311Z,101163.72
2023-03-29T19:52:50.882Z,101150.97
2023-03-29T19:55:18.610Z,101153.84
2023-03-29T19:57:45.070Z,101151.13
2023-03-29T20:00:11.662Z,101151.97
2023-03-29T20:02:38.128Z,101146.38
2023-03-29T20:05:04.791Z,101142.78
2023-03-29T20:07:31.257Z,101136.50
2023-03-29T20:09:57.650Z,101130.22
2023-03-29T20:12:24.205Z,101132.94
2023-03-29T20:14:50.639Z,101129.19
2023-03-29T20:17:17.106Z,101137.34
2023-03-29T20:19:44.060Z,101127.31
2023-03-29T20:22:11.598Z,101121.03
2023-03-29T20:24:38.065Z,101126.47
2023-03-29T20:27:04.750Z,101126.47
2023-03-29T20:29:32.868Z,101122.91
2023-03-29T20:31:59.422Z,101126.47
2023-03-29T20:34:25.984Z,101128.53
2023-03-29T20:36:55.152Z,101122.91
2023-03-29T20:39:25.648Z,101114.94
2023-03-29T20:41:52.399Z,101110.34
2023-03-29T20:44:18.876Z,101113.06
2023-03-29T20:47:02.408Z,101103.22
2023-03-29T20:49:29.742Z,101104.06
2023-03-29T20:52:03.411Z,101094.22
2023-03-29T20:54:29.838Z,101093.34
2023-03-29T20:56:56.467Z,101094.03
2023-03-29T20:59:22.937Z,101091.13
2023-03-29T21:01:50.330Z,101095.38
2023-03-29T21:04:16.941Z,101089.94
2023-03-29T21:06:45.486Z,101092.47
2023-03-29T21:09:12.603Z,101079.91
2023-03-29T21:11:39.216Z,101084.31
2023-03-29T21:14:05.712Z,101085.16
2023-03-29T21:16:32.074Z,101084.16
2023-03-29T21:18:58.545Z,101086.91
2023-03-29T21:21:24.999Z,101074.28
2023-03-29T21:23:51.444Z,101083.31
2023-03-29T21:26:17.892Z,101081.44
2023-03-29T21:28:44.318Z,101072.44
2023-03-29T21:31:10.758Z,101063.41
2023-03-29T21:33:37.260Z,101063.41
2023-03-29T21:36:03.851Z,101057.13
2023-03-29T21:38:30.634Z,101058.84
2023-03-29T21:40:58.198Z,101056.28
2023-03-29T21:43:24.629Z,101054.41
2023-03-29T21:45:51.393Z,101056.28
2023-03-29T21:48:18.140Z,101053.75
2023-03-29T21:50:47.938Z,101060.03
2023-03-29T21:53:14.358Z,101045.41
2023-03-29T21:55:40.790Z,101052.72
2023-03-29T21:58:07.181Z,101045.41
2023-03-29T22:00:33.671Z,101039.13
2023-03-29T22:03:00.286Z,101040.16
2023-03-29T22:05:27.252Z,101039.13
2023-03-29T22:07:53.694Z,101032.00
2023-03-29T22:10:23.935Z,101023.84
2023-03-29T22:12:51.049Z,101025.53
2023-03-29T22:15:19.217Z,101020.28
2023-03-29T22:17:45.824Z,101019.44
2023-03-29T22:20:13.236Z,101021.97
2023-03-29T22:22:43.423Z,101014.84
2023-03-29T22:25:10.640Z,101013.81
2023-03-29T22:27:37.419Z,101016.53
2023-03-29T22:30:05.609Z,101017.38
2023-03-29T22:32:32.473Z,101013.63
2023-03-29T22:34:58.950Z,101014.66
2023-03-29T22:37:25.570Z,101017.38
2023-03-29T22:39:51.953Z,101017.19
2023-03-29T22:42:18.399Z,101021.78
2023-03-29T22:44:44.925Z,101016.34
2023-03-29T22:47:11.331Z,101011.75
2023-03-29T22:49:37.745Z,101009.91
2023-03-29T22:52:04.149Z,101006.31
2023-03-29T22:54:31.190Z,101004.63
2023-03-29T22:56:58.136Z,101009.03
2023-03-29T22:59:25.141Z,101004.47
2023-03-29T23:01:51.933Z,101010.91
2023-03-29T23:04:18.467Z,100991.84
2023-03-29T23:06:44.959Z,101004.28
2023-03-29T23:09:12.004Z,100999.50
2023-03-29T23:11:39.415Z,100990.47
2023-03-29T23:14:07.600Z,101003.94
2023-03-29T23:16:34.191Z,100992.88
2023-03-29T23:19:00.992Z,100985.56
2023-03-29T23:21:28.003Z,100977.19
2023-03-29T23:23:55.149Z,100976.84
2023-03-29T23:26:21.628Z,100975.81
2023-03-29T23:28:47.990Z,100974.81
2023-03-29T23:31:18.440Z,100970.38
2023-03-29T23:33:45.030Z,100975.66
2023-03-29T23:36:15.459Z,100972.09
2023-03-29T23:38:43.763Z,100973.78
2023-03-29T23:41:12.668Z,100969.38
2023-03-29T23:43:40.500Z,100976.69
2023-03-29T23:46:08.563Z,100970.38
2023-03-29T23:48:35.039Z,100970.38
2023-03-29T23:51:02.253Z,100969.53
2023-03-29T23:53:29.682Z,100967.84
2023-03-29T23:56:01.276Z,100969.53
2023-03-29T23:58:31.757Z,100961.38
